sensor_id;sensor_type;location;lat;lon;timestamp;temperature;humidity
51619;DHT22;38518;53.164;5.430;2022-08-21T00:02:16;17.40;99.90
51619;DHT22;38518;53.164;5.430;2022-08-21T00:04:43;17.40;99.90
51619;DHT22;38518;53.164;5.430;2022-08-21T00:07:09;17.40;99.90
51619;DHT22;38518;53.164;5.430;2022-08-21T00:09:35;17.40;99.90
51619;DHT22;38518;53.164;5.430;2022-08-21T00:12:01;17.40;99.90
51619;DHT22;38518;53.164;5.430;2022-08-21T00:14:27;17.40;99.90
51619;DHT22;38518;53.164;5.430;2022-08-21T00:16:53;17.30;99.90
51619;DHT22;38518;53.164;5.430;2022-08-21T00:19:19;17.30;99.90
51619;DHT22;38518;53.164;5.430;2022-08-21T00:21:45;17.40;99.90
51619;DHT22;38518;53.164;5.430;2022-08-21T00:24:11;17.40;99.90
51619;DHT22;38518;53.164;5.430;2022-08-21T00:26:37;17.30;99.90
51619;DHT22;38518;53.164;5.430;2022-08-21T00:29:03;17.30;99.90
51619;DHT22;38518;53.164;5.430;2022-08-21T00:31:29;17.30;99.90
51619;DHT22;38518;53.164;5.430;2022-08-21T00:33:55;17.30;99.90
51619;DHT22;38518;53.164;5.430;2022-08-21T00:36:20;17.30;99.90
51619;DHT22;38518;53.164;5.430;2022-08-21T00:38:46;17.30;99.90
51619;DHT22;38518;53.164;5.430;2022-08-21T00:41:12;17.30;99.90
51619;DHT22;38518;53.164;5.430;2022-08-21T00:43:39;17.30;99.90
51619;DHT22;38518;53.164;5.430;2022-08-21T00:46:06;17.40;99.90
51619;DHT22;38518;53.164;5.430;2022-08-21T00:48:32;17.40;99.90
51619;DHT22;38518;53.164;5.430;2022-08-21T00:51:07;17.40;99.90
51619;DHT22;38518;53.164;5.430;2022-08-21T00:53:36;17.50;99.90
51619;DHT22;38518;53.164;5.430;2022-08-21T00:56:03;17.50;99.90
51619;DHT22;38518;53.164;5.430;2022-08-21T00:58:31;17.60;99.90
51619;DHT22;38518;53.164;5.430;2022-08-21T01:00:59;17.60;99.90
51619;DHT22;38518;53.164;5.430;2022-08-21T01:03:26;17.60;99.90
51619;DHT22;38518;53.164;5.430;2022-08-21T01:05:52;17.60;99.90
51619;DHT22;38518;53.164;5.430;2022-08-21T01:08:20;17.70;99.90
51619;DHT22;38518;53.164;5.430;2022-08-21T01:10:46;17.60;99.90
51619;DHT22;38518;53.164;5.430;2022-08-21T01:13:15;17.70;99.90
51619;DHT22;38518;53.164;5.430;2022-08-21T01:15:44;17.80;99.90
51619;DHT22;38518;53.164;5.430;2022-08-21T01:18:12;17.80;99.90
51619;DHT22;38518;53.164;5.430;2022-08-21T01:20:43;17.80;99.90
51619;DHT22;38518;53.164;5.430;2022-08-21T01:23:10;17.80;99.90
51619;DHT22;38518;53.164;5.430;2022-08-21T01:25:36;17.80;99.90
51619;DHT22;38518;53.164;5.430;2022-08-21T01:28:14;17.70;99.90
51619;DHT22;38518;53.164;5.430;2022-08-21T01:30:42;17.60;99.90
51619;DHT22;38518;53.164;5.430;2022-08-21T01:33:09;17.60;99.90
51619;DHT22;38518;53.164;5.430;2022-08-21T01:35:35;17.50;99.90
51619;DHT22;38518;53.164;5.430;2022-08-21T01:38:04;18.40;99.90
51619;DHT22;38518;53.164;5.430;2022-08-21T01:40:30;17.30;99.90
51619;DHT22;38518;53.164;5.430;2022-08-21T01:42:55;17.30;99.90
51619;DHT22;38518;53.164;5.430;2022-08-21T01:45:21;17.30;99.90
51619;DHT22;38518;53.164;5.430;2022-08-21T01:47:47;17.20;99.90
51619;DHT22;38518;53.164;5.430;2022-08-21T01:50:15;17.20;99.90
51619;DHT22;38518;53.164;5.430;2022-08-21T01:52:42;17.10;99.90
51619;DHT22;38518;53.164;5.430;2022-08-21T01:55:09;17.10;99.90
51619;DHT22;38518;53.164;5.430;2022-08-21T01:57:35;17.00;99.90
51619;DHT22;38518;53.164;5.430;2022-08-21T02:00:05;17.00;99.90
51619;DHT22;38518;53.164;5.430;2022-08-21T02:02:31;17.20;99.90
51619;DHT22;38518;53.164;5.430;2022-08-21T02:04:57;17.30;99.90
51619;DHT22;38518;53.164;5.430;2022-08-21T02:07:23;17.30;99.90
51619;DHT22;38518;53.164;5.430;2022-08-21T02:09:48;17.30;99.90
51619;DHT22;38518;53.164;5.430;2022-08-21T02:12:14;17.40;99.90
51619;DHT22;38518;53.164;5.430;2022-08-21T02:14:40;17.50;99.90
51619;DHT22;38518;53.164;5.430;2022-08-21T02:17:06;17.50;99.90
51619;DHT22;38518;53.164;5.430;2022-08-21T02:19:32;17.40;99.90
51619;DHT22;38518;53.164;5.430;2022-08-21T02:21:58;17.40;99.90
51619;DHT22;38518;53.164;5.430;2022-08-21T02:24:23;17.30;99.90
51619;DHT22;38518;53.164;5.430;2022-08-21T02:26:49;17.30;99.90
51619;DHT22;38518;53.164;5.430;2022-08-21T02:29:15;17.30;99.90
51619;DHT22;38518;53.164;5.430;2022-08-21T02:31:41;17.30;99.90
51619;DHT22;38518;53.164;5.430;2022-08-21T02:34:07;17.30;99.90
51619;DHT22;38518;53.164;5.430;2022-08-21T02:36:34;17.30;99.90
51619;DHT22;38518;53.164;5.430;2022-08-21T02:39:00;17.20;99.90
51619;DHT22;38518;53.164;5.430;2022-08-21T02:41:25;17.20;99.90
51619;DHT22;38518;53.164;5.430;2022-08-21T02:43:51;17.20;99.90
51619;DHT22;38518;53.164;5.430;2022-08-21T02:46:19;17.30;99.90
51619;DHT22;38518;53.164;5.430;2022-08-21T02:48:46;17.30;99.90
51619;DHT22;38518;53.164;5.430;2022-08-21T02:51:16;17.30;99.90
51619;DHT22;38518;53.164;5.430;2022-08-21T02:53:44;17.50;99.90
51619;DHT22;38518;53.164;5.430;2022-08-21T02:56:13;17.50;99.90
51619;DHT22;38518;53.164;5.430;2022-08-21T02:58:43;17.60;99.90
51619;DHT22;38518;53.164;5.430;2022-08-21T03:01:09;17.70;99.90
51619;DHT22;38518;53.164;5.430;2022-08-21T03:03:41;17.80;99.90
51619;DHT22;38518;53.164;5.430;2022-08-21T03:06:09;17.90;99.90
51619;DHT22;38518;53.164;5.430;2022-08-21T03:08:36;17.90;99.90
51619;DHT22;38518;53.164;5.430;2022-08-21T03:11:03;18.10;99.90
51619;DHT22;38518;53.164;5.430;2022-08-21T03:13:29;18.10;99.90
51619;DHT22;38518;53.164;5.430;2022-08-21T03:15:55;18.20;99.90
51619;DHT22;38518;53.164;5.430;2022-08-21T03:18:21;18.30;99.90
51619;DHT22;38518;53.164;5.430;2022-08-21T03:20:47;18.30;99.90
51619;DHT22;38518;53.164;5.430;2022-08-21T03:23:14;18.30;99.90
51619;DHT22;38518;53.164;5.430;2022-08-21T03:25:41;18.40;99.90
51619;DHT22;38518;53.164;5.430;2022-08-21T03:28:10;18.40;99.90
51619;DHT22;38518;53.164;5.430;2022-08-21T03:30:40;18.40;99.90
51619;DHT22;38518;53.164;5.430;2022-08-21T03:33:06;18.30;99.90
51619;DHT22;38518;53.164;5.430;2022-08-21T03:35:32;18.30;99.90
51619;DHT22;38518;53.164;5.430;2022-08-21T03:37:58;18.30;99.90
51619;DHT22;38518;53.164;5.430;2022-08-21T03:40:25;18.20;99.90
51619;DHT22;38518;53.164;5.430;2022-08-21T03:42:50;18.20;99.90
51619;DHT22;38518;53.164;5.430;2022-08-21T03:45:18;18.10;99.90
51619;DHT22;38518;53.164;5.430;2022-08-21T03:47:55;18.00;99.90
51619;DHT22;38518;53.164;5.430;2022-08-21T03:50:23;17.90;99.90
51619;DHT22;38518;53.164;5.430;2022-08-21T03:52:50;17.80;99.90
51619;DHT22;38518;53.164;5.430;2022-08-21T03:55:16;17.70;99.90
51619;DHT22;38518;53.164;5.430;2022-08-21T03:57:42;17.70;99.90
51619;DHT22;38518;53.164;5.430;2022-08-21T04:00:08;17.60;99.90
51619;DHT22;38518;53.164;5.430;2022-08-21T04:02:38;17.60;99.90
51619;DHT22;38518;53.164;5.430;2022-08-21T04:05:04;17.50;99.90
51619;DHT22;38518;53.164;5.430;2022-08-21T04:07:30;17.50;99.90
51619;DHT22;38518;53.164;5.430;2022-08-21T04:09:56;17.40;99.90
51619;DHT22;38518;53.164;5.430;2022-08-21T04:12:22;17.40;99.90
51619;DHT22;38518;53.164;5.430;2022-08-21T04:14:49;17.40;99.90
51619;DHT22;38518;53.164;5.430;2022-08-21T04:17:17;17.40;99.90
51619;DHT22;38518;53.164;5.430;2022-08-21T04:19:43;17.40;99.90
51619;DHT22;38518;53.164;5.430;2022-08-21T04:22:09;17.30;99.90
51619;DHT22;38518;53.164;5.430;2022-08-21T04:24:35;17.30;99.90
51619;DHT22;38518;53.164;5.430;2022-08-21T04:27:01;17.30;99.90
51619;DHT22;38518;53.164;5.430;2022-08-21T04:29:27;17.30;99.90
51619;DHT22;38518;53.164;5.430;2022-08-21T04:31:52;17.20;99.90
51619;DHT22;38518;53.164;5.430;2022-08-21T04:34:21;17.20;99.90
51619;DHT22;38518;53.164;5.430;2022-08-21T04:36:47;17.30;99.90
51619;DHT22;38518;53.164;5.430;2022-08-21T04:39:12;17.30;99.90
51619;DHT22;38518;53.164;5.430;2022-08-21T04:41:38;17.20;99.90
51619;DHT22;38518;53.164;5.430;2022-08-21T04:44:04;17.30;99.90
51619;DHT22;38518;53.164;5.430;2022-08-21T04:46:30;17.40;99.90
51619;DHT22;38518;53.164;5.430;2022-08-21T04:48:56;17.50;99.90
51619;DHT22;38518;53.164;5.430;2022-08-21T04:51:25;17.60;99.90
51619;DHT22;38518;53.164;5.430;2022-08-21T04:54:20;17.70;99.90
51619;DHT22;38518;53.164;5.430;2022-08-21T04:56:52;17.70;99.90
51619;DHT22;38518;53.164;5.430;2022-08-21T04:59:22;17.80;99.90
51619;DHT22;38518;53.164;5.430;2022-08-21T05:01:50;17.60;99.90
51619;DHT22;38518;53.164;5.430;2022-08-21T05:04:22;17.90;99.90
51619;DHT22;38518;53.164;5.430;2022-08-21T05:06:50;18.00;99.90
51619;DHT22;38518;53.164;5.430;2022-08-21T05:09:22;18.00;99.90
51619;DHT22;38518;53.164;5.430;2022-08-21T05:11:49;18.00;99.90
51619;DHT22;38518;53.164;5.430;2022-08-21T05:14:15;18.10;99.90
51619;DHT22;38518;53.164;5.430;2022-08-21T05:16:41;18.20;99.90
51619;DHT22;38518;53.164;5.430;2022-08-21T05:19:09;18.30;99.90
51619;DHT22;38518;53.164;5.430;2022-08-21T05:21:37;18.30;99.90
51619;DHT22;38518;53.164;5.430;2022-08-21T05:24:03;18.40;99.90
51619;DHT22;38518;53.164;5.430;2022-08-21T05:26:29;18.50;99.90
51619;DHT22;38518;53.164;5.430;2022-08-21T05:28:55;18.50;99.90
51619;DHT22;38518;53.164;5.430;2022-08-21T05:31:21;18.60;99.90
51619;DHT22;38518;53.164;5.430;2022-08-21T05:33:47;18.60;99.90
51619;DHT22;38518;53.164;5.430;2022-08-21T05:36:13;18.70;99.90
51619;DHT22;38518;53.164;5.430;2022-08-21T05:38:39;18.80;99.90
51619;DHT22;38518;53.164;5.430;2022-08-21T05:41:05;18.80;99.90
51619;DHT22;38518;53.164;5.430;2022-08-21T05:43:31;18.90;99.90
51619;DHT22;38518;53.164;5.430;2022-08-21T05:46:05;19.00;99.90
51619;DHT22;38518;53.164;5.430;2022-08-21T05:48:32;19.10;99.90
51619;DHT22;38518;53.164;5.430;2022-08-21T05:51:05;19.20;99.90
51619;DHT22;38518;53.164;5.430;2022-08-21T05:53:31;19.20;99.90
51619;DHT22;38518;53.164;5.430;2022-08-21T05:55:57;19.60;99.90
51619;DHT22;38518;53.164;5.430;2022-08-21T05:58:22;19.80;99.90
51619;DHT22;38518;53.164;5.430;2022-08-21T06:00:50;20.10;99.90
51619;DHT22;38518;53.164;5.430;2022-08-21T06:03:25;20.00;99.90
51619;DHT22;38518;53.164;5.430;2022-08-21T06:05:51;20.40;99.90
51619;DHT22;38518;53.164;5.430;2022-08-21T06:08:18;20.60;99.90
51619;DHT22;38518;53.164;5.430;2022-08-21T06:10:46;20.80;99.90
51619;DHT22;38518;53.164;5.430;2022-08-21T06:13:14;21.00;99.90
51619;DHT22;38518;53.164;5.430;2022-08-21T06:15:40;21.10;99.90
51619;DHT22;38518;53.164;5.430;2022-08-21T06:18:07;21.20;99.90
51619;DHT22;38518;53.164;5.430;2022-08-21T06:20:33;21.30;99.90
51619;DHT22;38518;53.164;5.430;2022-08-21T06:22:59;21.40;99.90
51619;DHT22;38518;53.164;5.430;2022-08-21T06:25:25;21.60;99.90
51619;DHT22;38518;53.164;5.430;2022-08-21T06:27:51;21.70;99.90
51619;DHT22;38518;53.164;5.430;2022-08-21T06:30:17;21.80;99.90
51619;DHT22;38518;53.164;5.430;2022-08-21T06:32:43;22.00;99.90
51619;DHT22;38518;53.164;5.430;2022-08-21T06:35:10;22.20;99.90
51619;DHT22;38518;53.164;5.430;2022-08-21T06:37:35;22.00;99.90
51619;DHT22;38518;53.164;5.430;2022-08-21T06:40:03;22.40;99.90
51619;DHT22;38518;53.164;5.430;2022-08-21T06:42:29;22.50;99.90
51619;DHT22;38518;53.164;5.430;2022-08-21T06:44:56;22.60;99.90
51619;DHT22;38518;53.164;5.430;2022-08-21T06:47:23;22.80;99.90
51619;DHT22;38518;53.164;5.430;2022-08-21T06:49:48;22.80;90.60
51619;DHT22;38518;53.164;5.430;2022-08-21T06:52:14;22.90;84.20
51619;DHT22;38518;53.164;5.430;2022-08-21T06:54:40;22.90;83.00
51619;DHT22;38518;53.164;5.430;2022-08-21T06:57:06;23.00;80.50
51619;DHT22;38518;53.164;5.430;2022-08-21T06:59:32;23.10;81.50
51619;DHT22;38518;53.164;5.430;2022-08-21T07:01:59;23.20;79.60
51619;DHT22;38518;53.164;5.430;2022-08-21T07:04:25;23.30;76.90
51619;DHT22;38518;53.164;5.430;2022-08-21T07:06:51;23.40;67.10
51619;DHT22;38518;53.164;5.430;2022-08-21T07:09:17;23.50;62.20
51619;DHT22;38518;53.164;5.430;2022-08-21T07:11:45;23.50;58.20
51619;DHT22;38518;53.164;5.430;2022-08-21T07:14:12;23.50;56.30
51619;DHT22;38518;53.164;5.430;2022-08-21T07:16:38;23.60;53.70
51619;DHT22;38518;53.164;5.430;2022-08-21T07:19:03;23.60;56.90
51619;DHT22;38518;53.164;5.430;2022-08-21T07:21:29;23.80;49.90
51619;DHT22;38518;53.164;5.430;2022-08-21T07:23:55;23.80;47.10
51619;DHT22;38518;53.164;5.430;2022-08-21T07:26:23;24.00;46.50
51619;DHT22;38518;53.164;5.430;2022-08-21T07:28:50;24.10;44.90
51619;DHT22;38518;53.164;5.430;2022-08-21T07:31:18;24.10;35.70
51619;DHT22;38518;53.164;5.430;2022-08-21T07:33:44;24.20;33.90
51619;DHT22;38518;53.164;5.430;2022-08-21T07:36:10;24.30;30.20
51619;DHT22;38518;53.164;5.430;2022-08-21T07:38:36;24.40;32.80
51619;DHT22;38518;53.164;5.430;2022-08-21T07:41:05;24.50;30.20
51619;DHT22;38518;53.164;5.430;2022-08-21T07:43:32;24.60;29.00
51619;DHT22;38518;53.164;5.430;2022-08-21T07:45:58;24.70;29.80
51619;DHT22;38518;53.164;5.430;2022-08-21T07:48:24;24.90;26.20
51619;DHT22;38518;53.164;5.430;2022-08-21T07:50:50;25.00;25.70
51619;DHT22;38518;53.164;5.430;2022-08-21T07:53:16;25.10;26.80
51619;DHT22;38518;53.164;5.430;2022-08-21T07:55:42;25.30;24.00
51619;DHT22;38518;53.164;5.430;2022-08-21T07:58:08;25.40;24.20
51619;DHT22;38518;53.164;5.430;2022-08-21T08:00:34;25.60;19.60
51619;DHT22;38518;53.164;5.430;2022-08-21T08:03:00;25.70;19.50
51619;DHT22;38518;53.164;5.430;2022-08-21T08:05:28;25.90;17.90
51619;DHT22;38518;53.164;5.430;2022-08-21T08:07:55;26.10;13.70
51619;DHT22;38518;53.164;5.430;2022-08-21T08:10:22;26.20;13.20
51619;DHT22;38518;53.164;5.430;2022-08-21T08:12:51;26.20;9.80
51619;DHT22;38518;53.164;5.430;2022-08-21T08:15:23;26.20;9.40
51619;DHT22;38518;53.164;5.430;2022-08-21T08:17:49;26.30;7.30
51619;DHT22;38518;53.164;5.430;2022-08-21T08:20:16;26.30;7.40
51619;DHT22;38518;53.164;5.430;2022-08-21T08:22:46;26.30;7.10
51619;DHT22;38518;53.164;5.430;2022-08-21T08:25:13;26.30;6.60
51619;DHT22;38518;53.164;5.430;2022-08-21T08:27:40;26.40;6.50
51619;DHT22;38518;53.164;5.430;2022-08-21T08:30:09;26.50;7.80
51619;DHT22;38518;53.164;5.430;2022-08-21T08:32:36;26.60;6.20
51619;DHT22;38518;53.164;5.430;2022-08-21T08:35:02;26.60;6.50
51619;DHT22;38518;53.164;5.430;2022-08-21T08:37:28;26.90;6.30
51619;DHT22;38518;53.164;5.430;2022-08-21T08:39:54;27.10;3.70
51619;DHT22;38518;53.164;5.430;2022-08-21T08:42:34;27.10;1.20
51619;DHT22;38518;53.164;5.430;2022-08-21T08:45:13;27.10;1.00
51619;DHT22;38518;53.164;5.430;2022-08-21T08:47:52;27.00;1.00
51619;DHT22;38518;53.164;5.430;2022-08-21T08:50:40;27.10;2.40
51619;DHT22;38518;53.164;5.430;2022-08-21T08:53:12;27.30;1.00
51619;DHT22;38518;53.164;5.430;2022-08-21T08:55:42;27.50;1.00
51619;DHT22;38518;53.164;5.430;2022-08-21T08:58:33;27.50;1.00
51619;DHT22;38518;53.164;5.430;2022-08-21T09:01:00;27.60;1.00
51619;DHT22;38518;53.164;5.430;2022-08-21T09:03:27;27.80;1.00
51619;DHT22;38518;53.164;5.430;2022-08-21T09:10:02;27.70;1.00
51619;DHT22;38518;53.164;5.430;2022-08-21T09:12:10;27.90;1.00
51619;DHT22;38518;53.164;5.430;2022-08-21T09:17:30;28.60;1.00
51619;DHT22;38518;53.164;5.430;2022-08-21T09:25:31;29.30;1.00
51619;DHT22;38518;53.164;5.430;2022-08-21T09:27:58;29.50;1.00
51619;DHT22;38518;53.164;5.430;2022-08-21T09:30:27;29.80;1.00
51619;DHT22;38518;53.164;5.430;2022-08-21T09:32:54;30.20;1.00
51619;DHT22;38518;53.164;5.430;2022-08-21T09:35:21;30.20;1.00
51619;DHT22;38518;53.164;5.430;2022-08-21T09:38:06;30.20;1.00
51619;DHT22;38518;53.164;5.430;2022-08-21T09:40:45;30.20;1.00
51619;DHT22;38518;53.164;5.430;2022-08-21T09:45:38;30.20;1.00
51619;DHT22;38518;53.164;5.430;2022-08-21T09:48:21;30.40;1.00
51619;DHT22;38518;53.164;5.430;2022-08-21T09:50:49;30.50;1.00
51619;DHT22;38518;53.164;5.430;2022-08-21T09:53:21;30.50;1.00
51619;DHT22;38518;53.164;5.430;2022-08-21T09:55:58;30.40;1.00
51619;DHT22;38518;53.164;5.430;2022-08-21T09:58:46;30.20;1.00
51619;DHT22;38518;53.164;5.430;2022-08-21T10:01:20;30.30;1.00
51619;DHT22;38518;53.164;5.430;2022-08-21T10:03:47;30.60;1.00
51619;DHT22;38518;53.164;5.430;2022-08-21T10:06:26;30.70;1.00
51619;DHT22;38518;53.164;5.430;2022-08-21T10:09:13;31.10;1.00
51619;DHT22;38518;53.164;5.430;2022-08-21T10:12:29;31.30;1.00
51619;DHT22;38518;53.164;5.430;2022-08-21T10:17:29;31.80;1.00
51619;DHT22;38518;53.164;5.430;2022-08-21T10:20:06;32.10;1.00
51619;DHT22;38518;53.164;5.430;2022-08-21T10:26:02;32.30;1.00
51619;DHT22;38518;53.164;5.430;2022-08-21T10:28:50;32.30;1.00
51619;DHT22;38518;53.164;5.430;2022-08-21T10:36:41;32.10;1.00
51619;DHT22;38518;53.164;5.430;2022-08-21T10:42:14;32.30;1.00
51619;DHT22;38518;53.164;5.430;2022-08-21T10:47:55;32.60;1.00
51619;DHT22;38518;53.164;5.430;2022-08-21T10:50:31;32.80;1.00
51619;DHT22;38518;53.164;5.430;2022-08-21T10:56:02;33.30;1.00
51619;DHT22;38518;53.164;5.430;2022-08-21T10:58:31;33.60;1.00
51619;DHT22;38518;53.164;5.430;2022-08-21T11:01:07;33.40;1.00
51619;DHT22;38518;53.164;5.430;2022-08-21T11:03:42;33.20;1.00
51619;DHT22;38518;53.164;5.430;2022-08-21T11:06:19;33.20;1.00
51619;DHT22;38518;53.164;5.430;2022-08-21T11:08:52;33.20;1.00
51619;DHT22;38518;53.164;5.430;2022-08-21T11:14:23;31.40;1.00
51619;DHT22;38518;53.164;5.430;2022-08-21T11:16:57;31.00;1.00
51619;DHT22;38518;53.164;5.430;2022-08-21T11:20:15;30.30;1.00
51619;DHT22;38518;53.164;5.430;2022-08-21T11:25:17;30.10;1.00
51619;DHT22;38518;53.164;5.430;2022-08-21T11:27:49;29.70;1.00
51619;DHT22;38518;53.164;5.430;2022-08-21T11:30:16;30.20;1.00
51619;DHT22;38518;53.164;5.430;2022-08-21T11:36:06;29.70;1.00
51619;DHT22;38518;53.164;5.430;2022-08-21T11:38:57;30.00;1.00
51619;DHT22;38518;53.164;5.430;2022-08-21T11:47:05;30.00;1.00
51619;DHT22;38518;53.164;5.430;2022-08-21T11:57:50;30.10;1.00
51619;DHT22;38518;53.164;5.430;2022-08-21T12:00:33;30.00;1.00
51619;DHT22;38518;53.164;5.430;2022-08-21T12:03:21;30.30;1.00
51619;DHT22;38518;53.164;5.430;2022-08-21T12:06:09;30.60;1.00
51619;DHT22;38518;53.164;5.430;2022-08-21T12:08:42;30.60;1.00
51619;DHT22;38518;53.164;5.430;2022-08-21T12:16:37;30.50;1.00
51619;DHT22;38518;53.164;5.430;2022-08-21T12:19:32;30.40;1.00
51619;DHT22;38518;53.164;5.430;2022-08-21T12:22:15;30.70;1.00
51619;DHT22;38518;53.164;5.430;2022-08-21T12:24:48;30.40;1.00
51619;DHT22;38518;53.164;5.430;2022-08-21T12:27:23;30.10;1.00
51619;DHT22;38518;53.164;5.430;2022-08-21T12:32:27;30.00;1.00
51619;DHT22;38518;53.164;5.430;2022-08-21T12:35:00;30.20;1.00
51619;DHT22;38518;53.164;5.430;2022-08-21T12:37:46;30.70;1.00
51619;DHT22;38518;53.164;5.430;2022-08-21T12:40:23;30.40;1.00
51619;DHT22;38518;53.164;5.430;2022-08-21T12:42:53;30.50;1.00
51619;DHT22;38518;53.164;5.430;2022-08-21T12:45:23;30.30;1.00
51619;DHT22;38518;53.164;5.430;2022-08-21T12:47:56;30.20;1.00
51619;DHT22;38518;53.164;5.430;2022-08-21T12:50:31;30.10;1.00
51619;DHT22;38518;53.164;5.430;2022-08-21T12:53:22;30.10;1.00
51619;DHT22;38518;53.164;5.430;2022-08-21T12:55:52;30.40;1.00
51619;DHT22;38518;53.164;5.430;2022-08-21T12:58:27;30.50;1.00
51619;DHT22;38518;53.164;5.430;2022-08-21T13:03:49;30.40;1.00
51619;DHT22;38518;53.164;5.430;2022-08-21T13:06:17;30.20;1.00
51619;DHT22;38518;53.164;5.430;2022-08-21T13:08:48;30.40;1.00
51619;DHT22;38518;53.164;5.430;2022-08-21T13:11:19;30.70;1.00
51619;DHT22;38518;53.164;5.430;2022-08-21T13:13:51;30.50;1.00
51619;DHT22;38518;53.164;5.430;2022-08-21T13:16:28;30.50;1.00
51619;DHT22;38518;53.164;5.430;2022-08-21T13:19:00;30.20;1.00
51619;DHT22;38518;53.164;5.430;2022-08-21T13:21:32;30.40;1.00
51619;DHT22;38518;53.164;5.430;2022-08-21T13:24:21;30.50;1.00
51619;DHT22;38518;53.164;5.430;2022-08-21T13:26:51;30.40;1.00
51619;DHT22;38518;53.164;5.430;2022-08-21T13:29:23;30.00;1.00
51619;DHT22;38518;53.164;5.430;2022-08-21T13:31:52;30.00;1.00
51619;DHT22;38518;53.164;5.430;2022-08-21T13:34:39;29.70;1.00
51619;DHT22;38518;53.164;5.430;2022-08-21T13:37:07;29.50;1.00
51619;DHT22;38518;53.164;5.430;2022-08-21T13:39:34;29.70;1.00
51619;DHT22;38518;53.164;5.430;2022-08-21T13:42:04;29.40;1.00
51619;DHT22;38518;53.164;5.430;2022-08-21T13:44:40;29.40;1.00
51619;DHT22;38518;53.164;5.430;2022-08-21T13:47:06;29.60;1.00
51619;DHT22;38518;53.164;5.430;2022-08-21T13:49:37;29.90;1.00
51619;DHT22;38518;53.164;5.430;2022-08-21T13:52:05;29.50;1.00
51619;DHT22;38518;53.164;5.430;2022-08-21T13:54:41;29.70;1.00
51619;DHT22;38518;53.164;5.430;2022-08-21T13:57:19;30.00;1.00
51619;DHT22;38518;53.164;5.430;2022-08-21T13:59:45;29.80;1.00
51619;DHT22;38518;53.164;5.430;2022-08-21T14:02:18;29.50;1.00
51619;DHT22;38518;53.164;5.430;2022-08-21T14:04:54;29.70;1.00
51619;DHT22;38518;53.164;5.430;2022-08-21T14:07:31;29.30;1.00
51619;DHT22;38518;53.164;5.430;2022-08-21T14:10:22;29.30;1.00
51619;DHT22;38518;53.164;5.430;2022-08-21T14:12:54;29.20;1.00
51619;DHT22;38518;53.164;5.430;2022-08-21T14:15:25;29.40;1.00
51619;DHT22;38518;53.164;5.430;2022-08-21T14:17:54;29.70;1.00
51619;DHT22;38518;53.164;5.430;2022-08-21T14:20:32;29.70;1.00
51619;DHT22;38518;53.164;5.430;2022-08-21T14:22:58;30.20;1.00
51619;DHT22;38518;53.164;5.430;2022-08-21T14:30:31;30.70;1.00
51619;DHT22;38518;53.164;5.430;2022-08-21T14:32:58;30.30;1.00
51619;DHT22;38518;53.164;5.430;2022-08-21T14:35:24;29.80;1.00
51619;DHT22;38518;53.164;5.430;2022-08-21T14:37:51;29.80;1.00
51619;DHT22;38518;53.164;5.430;2022-08-21T14:40:23;29.80;1.00
51619;DHT22;38518;53.164;5.430;2022-08-21T14:42:50;29.90;1.00
51619;DHT22;38518;53.164;5.430;2022-08-21T14:45:20;30.00;1.00
51619;DHT22;38518;53.164;5.430;2022-08-21T14:47:48;29.40;1.00
51619;DHT22;38518;53.164;5.430;2022-08-21T14:50:15;29.80;1.00
51619;DHT22;38518;53.164;5.430;2022-08-21T14:52:41;29.30;1.00
51619;DHT22;38518;53.164;5.430;2022-08-21T14:55:09;28.70;1.00
51619;DHT22;38518;53.164;5.430;2022-08-21T14:57:52;28.80;1.00
51619;DHT22;38518;53.164;5.430;2022-08-21T15:00:21;28.60;1.00
51619;DHT22;38518;53.164;5.430;2022-08-21T15:02:51;28.20;1.00
51619;DHT22;38518;53.164;5.430;2022-08-21T15:05:20;28.20;1.00
51619;DHT22;38518;53.164;5.430;2022-08-21T15:07:46;28.60;1.00
51619;DHT22;38518;53.164;5.430;2022-08-21T15:10:12;28.60;1.00
51619;DHT22;38518;53.164;5.430;2022-08-21T15:12:41;28.60;1.00
51619;DHT22;38518;53.164;5.430;2022-08-21T15:15:07;28.80;1.00
51619;DHT22;38518;53.164;5.430;2022-08-21T15:17:33;29.20;1.00
51619;DHT22;38518;53.164;5.430;2022-08-21T15:19:59;30.00;1.00
51619;DHT22;38518;53.164;5.430;2022-08-21T15:22:25;29.50;1.00
51619;DHT22;38518;53.164;5.430;2022-08-21T15:24:51;29.00;1.00
51619;DHT22;38518;53.164;5.430;2022-08-21T15:27:18;28.60;1.00
51619;DHT22;38518;53.164;5.430;2022-08-21T15:29:45;28.10;1.00
51619;DHT22;38518;53.164;5.430;2022-08-21T15:32:20;28.00;1.00
51619;DHT22;38518;53.164;5.430;2022-08-21T15:34:48;27.60;1.00
51619;DHT22;38518;53.164;5.430;2022-08-21T15:37:15;27.40;1.00
51619;DHT22;38518;53.164;5.430;2022-08-21T15:39:41;27.30;1.00
51619;DHT22;38518;53.164;5.430;2022-08-21T15:42:07;27.00;1.00
51619;DHT22;38518;53.164;5.430;2022-08-21T15:44:34;27.30;1.00
51619;DHT22;38518;53.164;5.430;2022-08-21T15:47:00;27.10;1.00
51619;DHT22;38518;53.164;5.430;2022-08-21T15:49:26;27.20;1.00
51619;DHT22;38518;53.164;5.430;2022-08-21T15:51:55;27.30;1.00
51619;DHT22;38518;53.164;5.430;2022-08-21T15:54:21;27.10;1.00
51619;DHT22;38518;53.164;5.430;2022-08-21T15:56:48;26.80;1.00
51619;DHT22;38518;53.164;5.430;2022-08-21T15:59:19;26.10;1.00
51619;DHT22;38518;53.164;5.430;2022-08-21T16:01:48;25.90;1.00
51619;DHT22;38518;53.164;5.430;2022-08-21T16:04:21;25.30;1.00
51619;DHT22;38518;53.164;5.430;2022-08-21T16:06:47;24.70;1.00
51619;DHT22;38518;53.164;5.430;2022-08-21T16:09:17;24.60;1.00
51619;DHT22;38518;53.164;5.430;2022-08-21T16:11:43;24.30;1.00
51619;DHT22;38518;53.164;5.430;2022-08-21T16:14:12;24.30;1.00
51619;DHT22;38518;53.164;5.430;2022-08-21T16:16:39;24.10;1.00
51619;DHT22;38518;53.164;5.430;2022-08-21T16:19:05;24.00;1.00
51619;DHT22;38518;53.164;5.430;2022-08-21T16:21:32;23.70;1.00
51619;DHT22;38518;53.164;5.430;2022-08-21T16:23:58;23.80;1.00
51619;DHT22;38518;53.164;5.430;2022-08-21T16:26:24;23.70;1.00
51619;DHT22;38518;53.164;5.430;2022-08-21T16:28:52;23.50;1.00
51619;DHT22;38518;53.164;5.430;2022-08-21T16:31:20;23.60;1.00
51619;DHT22;38518;53.164;5.430;2022-08-21T16:33:52;23.40;1.00
51619;DHT22;38518;53.164;5.430;2022-08-21T16:36:21;23.30;1.00
51619;DHT22;38518;53.164;5.430;2022-08-21T16:38:47;23.50;1.00
51619;DHT22;38518;53.164;5.430;2022-08-21T16:41:16;23.60;1.00
51619;DHT22;38518;53.164;5.430;2022-08-21T16:43:45;23.80;1.00
51619;DHT22;38518;53.164;5.430;2022-08-21T16:46:13;23.90;1.00
51619;DHT22;38518;53.164;5.430;2022-08-21T16:48:44;24.00;1.00
51619;DHT22;38518;53.164;5.430;2022-08-21T16:51:12;24.10;1.00
51619;DHT22;38518;53.164;5.430;2022-08-21T16:53:38;24.10;1.00
51619;DHT22;38518;53.164;5.430;2022-08-21T16:56:04;24.00;1.00
51619;DHT22;38518;53.164;5.430;2022-08-21T16:58:34;23.80;1.00
51619;DHT22;38518;53.164;5.430;2022-08-21T17:01:05;23.60;1.00
51619;DHT22;38518;53.164;5.430;2022-08-21T17:03:35;22.40;1.00
51619;DHT22;38518;53.164;5.430;2022-08-21T17:06:02;23.50;1.00